Data for 12/03/2008

Time Sea-Level Adjusted Pressure Absolute Pressure Temperature Relative Humidity Dew Point   
(mb) (inHg) (mb) (inHg) (C) (F) (%) (C) (F)
00:05 1022 30.18 852 25.16 -7.6 18.4 83 -10 14
00:10 1023 30.21 852 25.16 -7.6 18.3 83 -10 13.9
00:15 1023 30.21 852 25.16 -7.5 18.5 83 -9.9 14.2
00:20 1023 30.21 852 25.16 -7.4 18.6 83 -9.9 14.2
00:25 1023 30.21 852 25.16 -7.5 18.5 83 -9.9 14.1
00:30 1023 30.21 852 25.16 -7.5 18.4 82 -10.1 13.9
00:35 1023 30.21 852 25.16 -7.7 18.2 84 -10 14
00:40 1023 30.21 852 25.16 -7.6 18.4 83 -9.9 14.1
00:45 1023 30.21 852 25.16 -7.5 18.5 84 -9.8 14.3
00:50 1023 30.21 852 25.16 -7.5 18.5 83 -9.9 14.1
00:55 1023 30.21 852 25.16 -7.4 18.6 83 -9.9 14.2
01:00 1023 30.21 852 25.16 -7.5 18.6 83 -9.9 14.2
01:05 1023 30.21 852 25.16 -7.5 18.6 83 -9.9 14.3
01:10 1023 30.21 852 25.16 -7.5 18.6 83 -9.8 14.3
01:15 1023 30.21 852 25.16 -7.5 18.6 84 -9.8 14.4
01:20 1023 30.21 852 25.16 -7.4 18.8 83 -9.8 14.4
01:25 1023 30.21 852 25.16 -7.4 18.6 84 -9.7 14.6
01:30 1023 30.21 852 25.16 -7.4 18.6 85 -9.6 14.7
01:35 1023 30.21 852 25.16 -7.4 18.7 84 -9.6 14.7
01:40 1023 30.21 852 25.16 -7.4 18.6 84 -9.7 14.6
01:45 1023 30.21 852 25.16 -7.5 18.5 85 -9.6 14.8
01:50 1023 30.21 852 25.16 -7.5 18.4 85 -9.7 14.6
01:55 1023 30.21 852 25.16 -7.6 18.4 86 -9.6 14.8
02:00 1023 30.21 852 25.16 -7.4 18.6 85 -9.5 14.9
02:05 1023 30.21 852 25.16 -7.3 18.8 85 -9.4 15.1
02:10 1023 30.21 853 25.19 -7.3 18.9 85 -9.4 15.1
02:15 1023 30.21 853 25.19 -7.3 18.9 85 -9.4 15.1
02:20 1024 30.24 853 25.19 -7.3 18.8 85 -9.4 15.1
02:25 1023 30.21 853 25.19 -7.4 18.7 86 -9.3 15.2
02:30 1024 30.24 853 25.19 -7.4 18.8 87 -9.2 15.4
02:35 1024 30.24 853 25.19 -7.4 18.7 87 -9.2 15.4
02:40 1024 30.24 853 25.19 -7.5 18.6 87 -9.2 15.4
02:45 1024 30.24 853 25.19 -7.4 18.7 87 -9.2 15.4
02:50 1024 30.24 853 25.19 -7.4 18.7 87 -9.2 15.5
02:55 1024 30.24 853 25.19 -7.4 18.7 87 -9.2 15.5
03:00 1024 30.24 853 25.19 -7.6 18.4 87 -9.3 15.2
03:05 1024 30.24 853 25.19 -7.6 18.3 88 -9.3 15.2
03:10 1024 30.24 853 25.19 -7.5 18.5 87 -9.3 15.2
03:15 1024 30.24 853 25.19 -7.4 18.7 86 -9.3 15.2
03:20 1024 30.24 853 25.19 -7.4 18.6 87 -9.3 15.2
03:25 1024 30.24 853 25.19 -7.5 18.6 87 -9.3 15.3
03:30 1024 30.24 853 25.19 -7.5 18.5 87 -9.3 15.3
03:35 1024 30.24 853 25.19 -7.5 18.5 86 -9.4 15.1
03:40 1024 30.24 853 25.19 -7.5 18.5 87 -9.3 15.2
03:45 1024 30.24 853 25.19 -7.5 18.6 87 -9.3 15.2
03:50 1024 30.24 853 25.19 -7.5 18.6 86 -9.3 15.2
03:55 1024 30.24 853 25.19 -7.6 18.3 88 -9.3 15.2
04:00 1024 30.24 853 25.19 -7.8 18.1 87 -9.5 14.9
04:05 1024 30.24 853 25.19 -7.7 18.1 88 -9.4 15.1
04:10 1024 30.24 853 25.19 -7.8 17.9 88 -9.4 15
04:15 1024 30.24 853 25.19 -7.8 17.9 88 -9.4 15
04:20 1024 30.24 853 25.19 -7.8 17.9 88 -9.4 15
04:25 1024 30.24 853 25.19 -7.7 18.1 88 -9.4 15
04:30 1024 30.24 853 25.19 -7.7 18.1 88 -9.3 15.3
04:35 1024 30.24 853 25.19 -7.7 18.1 88 -9.4 15.2
04:40 1024 30.24 853 25.19 -7.6 18.3 88 -9.4 15.2
04:45 1024 30.24 853 25.19 -7.7 18.2 88 -9.3 15.2
04:50 1024 30.24 853 25.19 -7.6 18.3 88 -9.3 15.3
04:55 1024 30.24 853 25.19 -7.6 18.4 87 -9.4 15.1
05:00 1024 30.24 853 25.19 -7.6 18.3 88 -9.3 15.3
05:05 1024 30.24 853 25.19 -7.8 18 88 -9.4 15.1
05:10 1024 30.24 853 25.19 -7.9 17.8 89 -9.5 15
05:15 1024 30.24 853 25.19 -7.9 17.8 89 -9.4 15
05:20 1024 30.24 853 25.19 -7.8 18 89 -9.3 15.3
05:25 1024 30.24 853 25.19 -7.7 18.1 88 -9.5 15
05:30 1024 30.24 853 25.19 -7.8 18 88 -9.4 15.1
05:35 1024 30.24 853 25.19 -7.9 17.8 89 -9.5 15
05:40 1024 30.24 853 25.19 -7.9 17.8 88 -9.5 14.8
05:45 1024 30.24 853 25.19 -7.9 17.9 89 -9.4 15.1
05:50 1024 30.24 853 25.19 -7.7 18.1 87 -9.5 15
05:55 1024 30.24 853 25.19 -7.6 18.2 88 -9.4 15.2
06:00 1024 30.24 853 25.19 -7.7 18.1 88 -9.3 15.2
06:05 1024 30.24 853 25.19 -7.6 18.3 87 -9.4 15.1
06:10 1024 30.24 853 25.19 -7.6 18.3 88 -9.3 15.3
06:15 1024 30.24 853 25.19 -7.7 18.2 87 -9.4 15
06:20 1024 30.24 853 25.19 -7.7 18.1 87 -9.5 14.8
06:25 1024 30.24 853 25.19 -7.9 17.9 88 -9.5 14.8
06:30 1024 30.24 853 25.19 -7.9 17.9 88 -9.5 14.8
06:35 1024 30.24 853 25.19 -7.7 18.1 88 -9.5 15
06:40 1024 30.24 853 25.19 -7.7 18.2 88 -9.3 15.2
06:45 1024 30.24 853 25.19 -7.6 18.3 88 -9.3 15.2
06:50 1024 30.24 853 25.19 -7.6 18.3 88 -9.3 15.2
06:55 1024 30.24 853 25.19 -7.6 18.3 88 -9.3 15.3
07:00 1024 30.24 853 25.19 -7.6 18.4 86 -9.4 15
07:05 1024 30.24 853 25.19 -7.7 18.1 88 -9.3 15.2
07:10 1024 30.24 853 25.19 -7.7 18.1 89 -9.3 15.2
07:15 1024 30.24 853 25.19 -7.7 18.2 88 -9.3 15.3
07:20 1024 30.24 853 25.19 -7.7 18.1 89 -9.3 15.3
07:25 1024 30.24 853 25.19 -7.9 17.8 89 -9.4 15.1
07:30 1024 30.24 853 25.19 -8.1 17.4 90 -9.4 15
07:35 1024 30.24 853 25.19 -8.1 17.4 90 -9.5 14.9
07:40 1024 30.24 853 25.19 -8.1 17.3 90 -9.5 14.9
07:45 1024 30.24 853 25.19 -8.3 17.2 90 -9.6 14.8
07:50 1024 30.24 853 25.19 -8.3 17.1 91 -9.6 14.8
07:55 1024 30.24 853 25.19 -8.2 17.2 90 -9.6 14.8
08:00 1024 30.24 853 25.19 -8.1 17.4 90 -9.4 15
08:05 1024 30.24 853 25.19 -8 17.6 89 -9.5 15
08:10 1024 30.24 853 25.19 -8 17.7 89 -9.4 15
08:15 1024 30.24 853 25.19 -7.9 17.8 89 -9.3 15.2
08:20 1024 30.24 853 25.19 -8 17.7 89 -9.4 15
08:25 1024 30.24 853 25.19 -8 17.7 89 -9.5 14.9
08:30 1024 30.24 853 25.19 -8 17.6 88 -9.6 14.7
08:35 1024 30.24 853 25.19 -8 17.7 88 -9.6 14.8
08:40 1024 30.24 853 25.19 -7.7 18.1 87 -9.5 15
08:45 1024 30.24 853 25.19 -7.5 18.4 87 -9.3 15.2
08:50 1024 30.24 853 25.19 -7.4 18.7 87 -9.2 15.4
08:55 1024 30.24 853 25.19 -7.3 19 85 -9.3 15.3
09:00 1024 30.24 853 25.19 -7.1 19.2 85 -9.2 15.4
09:05 1024 30.24 853 25.19 -7 19.3 84 -9.2 15.4
09:10 1024 30.24 853 25.19 -7.1 19.3 84 -9.3 15.3
09:15 1024 30.24 853 25.19 -7 19.5 85 -9.1 15.6
09:20 1024 30.24 853 25.19 -6.8 19.8 83 -9.2 15.4
09:25 1024 30.24 853 25.19 -6.6 20.1 82 -9.2 15.4
09:30 1024 30.24 853 25.19 -6.4 20.4 82 -9 15.8
09:35 1024 30.24 853 25.19 -6.4 20.5 83 -8.9 16
09:40 1024 30.24 853 25.19 -6.3 20.6 81 -9 15.8
09:45 1024 30.24 854 25.22 -6.2 20.8 80 -9 15.7
09:50 1024 30.24 854 25.22 -6.1 21.1 81 -8.9 16
09:55 1024 30.24 854 25.22 -6 21.1 80 -9 15.8
10:00 1024 30.24 854 25.22 -6.1 21 80 -9 15.9
10:05 1024 30.24 854 25.22 -6 21.2 80 -9 15.9
10:10 1024 30.24 854 25.22 -5.9 21.4 79 -9 15.8
10:15 1024 30.24 854 25.22 -5.7 21.7 77 -9 15.7
10:20 1024 30.24 854 25.22 -5.7 21.7 78 -9 15.7
10:25 1024 30.24 854 25.22 -5.8 21.6 79 -8.9 15.9
10:30 1024 30.24 854 25.22 -6 21.2 80 -8.9 15.9
10:35 1024 30.24 854 25.22 -5.8 21.6 78 -9.1 15.6
10:40 1025 30.27 854 25.22 -5.4 22.3 76 -9 15.9
10:45 1025 30.27 854 25.22 -5.2 22.7 76 -8.8 16.1
10:50 1025 30.27 854 25.22 -5.1 22.9 75 -8.8 16.2
10:55 1025 30.27 854 25.22 -5.2 22.7 75 -8.9 15.9
11:00 1024 30.24 854 25.22 -5.3 22.5 76 -8.8 16.1
11:05 1024 30.24 854 25.22 -5.4 22.3 77 -8.8 16.2
11:10 1024 30.24 854 25.22 -5.4 22.3 77 -8.8 16.1
11:15 1025 30.27 854 25.22 -5.3 22.5 76 -8.9 16
11:20 1025 30.27 854 25.22 -5.1 22.8 74 -9 15.8
11:25 1025 30.27 854 25.22 -5.2 22.6 74 -9.2 15.5
11:30 1024 30.24 854 25.22 -5.3 22.4 76 -8.9 16
11:35 1024 30.24 854 25.22 -5.8 21.5 77 -9.2 15.5
11:40 1024 30.24 854 25.22 -5.7 21.7 77 -9.2 15.5
11:45 1024 30.24 853 25.19 -5.3 22.5 75 -9.1 15.7
11:50 1024 30.24 853 25.19 -5.3 22.5 74 -9.1 15.5
11:55 1024 30.24 853 25.19 -5.4 22.2 75 -9.1 15.5
12:00 1024 30.24 853 25.19 -5.6 21.9 78 -8.9 16
12:05 1024 30.24 853 25.19 -5.8 21.6 77 -9.2 15.5
12:10 1024 30.24 853 25.19 -6.4 20.4 80 -9.3 15.2
12:15 1024 30.24 853 25.19 -6.1 21 78 -9.3 15.2
12:20 1024 30.24 853 25.19 -5.4 22.4 75 -9.2 15.5
12:25 1024 30.24 853 25.19 -5.1 22.9 73 -9.2 15.5
12:30 1024 30.24 853 25.19 -5.2 22.6 73 -9.4 15.1
12:35 1024 30.24 853 25.19 -4.9 23.2 73 -9.1 15.6
12:40 1024 30.24 853 25.19 -4.7 23.5 71 -9.3 15.3
12:45 1024 30.24 853 25.19 -4.9 23.3 75 -8.7 16.4
12:50 1024 30.24 853 25.19 -4.8 23.3 73 -9 15.9
12:55 1024 30.24 853 25.19 -4.6 23.7 70 -9.3 15.2
13:00 1024 30.24 853 25.19 -4.4 24.1 74 -8.4 16.9
13:05 1023 30.21 853 25.19 -4.6 23.6 74 -8.7 16.4
13:10 1023 30.21 853 25.19 -5.3 22.5 78 -8.5 16.7
13:15 1023 30.21 853 25.19 -5 23 75 -8.7 16.3
13:20 1023 30.21 853 25.19 -5.2 22.7 76 -8.7 16.3
13:25 1023 30.21 853 25.19 -5.1 22.9 76 -8.6 16.5
13:30 1023 30.21 853 25.19 -4.4 24.2 72 -8.7 16.4
13:35 1023 30.21 853 25.19 -4.9 23.2 75 -8.6 16.5
13:40 1023 30.21 852 25.16 -4.6 23.7 70 -9.2 15.4
13:45 1023 30.21 852 25.16 -4.2 24.4 71 -8.7 16.4
13:50 1023 30.21 852 25.16 -4.4 24.2 72 -8.7 16.3
13:55 1023 30.21 852 25.16 -4.6 23.8 72 -8.9 16.1
14:00 1023 30.21 852 25.16 -5.1 22.8 75 -8.9 15.9
14:05 1023 30.21 852 25.16 -5.5 22.1 77 -8.9 16
14:10 1023 30.21 852 25.16 -5.5 22 76 -9.1 15.6
14:15 1023 30.21 852 25.16 -5.4 22.2 76 -9.1 15.7
14:20 1023 30.21 852 25.16 -5.7 21.7 78 -9.1 15.7
14:25 1023 30.21 852 25.16 -5.5 22 75 -9.3 15.2
14:30 1023 30.21 852 25.16 -5.5 22.2 76 -9.1 15.7
14:35 1023 30.21 852 25.16 -5.4 22.4 75 -9 15.7
14:40 1023 30.21 852 25.16 -5.3 22.4 74 -9.2 15.5
14:45 1023 30.21 852 25.16 -5.9 21.5 78 -9 15.7
14:50 1023 30.21 852 25.16 -5.9 21.4 78 -9.1 15.6
14:55 1023 30.21 852 25.16 -6.2 20.9 80 -9.1 15.7
15:00 1023 30.21 852 25.16 -6.5 20.3 82 -9.1 15.6
15:05 1023 30.21 852 25.16 -6.6 20.1 82 -9.2 15.5
15:10 1023 30.21 852 25.16 -6.3 20.6 80 -9.2 15.4
15:15 1023 30.21 852 25.16 -6.1 21.1 78 -9.2 15.4
15:20 1023 30.21 852 25.16 -6 21.3 79 -9.1 15.6
15:25 1023 30.21 852 25.16 -5.9 21.4 78 -9.2 15.5
15:30 1023 30.21 852 25.16 -5.9 21.4 79 -9 15.7
15:35 1023 30.21 852 25.16 -5.9 21.3 78 -9.2 15.5
15:40 1023 30.21 852 25.16 -6 21.2 77 -9.3 15.2
15:45 1023 30.21 852 25.16 -6.1 21 79 -9.2 15.4
15:50 1023 30.21 852 25.16 -6.1 21 77 -9.6 14.7
15:55 1023 30.21 852 25.16 -6.2 20.9 76 -9.7 14.5
16:00 1023 30.21 852 25.16 -6.2 20.8 76 -9.8 14.3
16:05 1023 30.21 852 25.16 -6.3 20.7 75 -10.1 13.9
16:10 1023 30.21 852 25.16 -6.3 20.7 75 -10 14.1
16:15 1023 30.21 852 25.16 -6.2 20.8 75 -10.1 13.9
16:20 1023 30.21 852 25.16 -6.3 20.7 74 -10.2 13.7
16:25 1023 30.21 852 25.16 -6.3 20.7 73 -10.4 13.3
16:30 1023 30.21 852 25.16 -6.3 20.6 74 -10.2 13.6
16:35 1023 30.21 852 25.16 -6.4 20.5 73 -10.5 13.1
16:40 1023 30.21 853 25.19 -6.3 20.6 74 -10.2 13.7
16:45 1023 30.21 853 25.19 -6.4 20.5 75 -10.1 13.9
16:50 1023 30.21 853 25.19 -6.6 20.2 77 -10 14
16:55 1023 30.21 853 25.19 -6.6 20.2 78 -9.8 14.4
17:00 1024 30.24 853 25.19 -6.7 20 79 -9.7 14.5
17:05 1024 30.24 853 25.19 -6.7 19.9 80 -9.7 14.5
17:10 1024 30.24 853 25.19 -6.7 20 80 -9.6 14.7
17:15 1024 30.24 853 25.19 -6.9 19.6 81 -9.6 14.8
17:20 1024 30.24 853 25.19 -6.9 19.5 82 -9.6 14.7
17:25 1024 30.24 853 25.19 -6.8 19.8 81 -9.5 14.8
17:30 1024 30.24 853 25.19 -6.9 19.7 80 -9.7 14.5
17:35 1024 30.24 853 25.19 -6.9 19.6 81 -9.6 14.8
17:40 1024 30.24 853 25.19 -6.9 19.7 82 -9.4 15.1
17:45 1024 30.24 853 25.19 -6.9 19.5 82 -9.5 14.9
17:50 1024 30.24 853 25.19 -6.9 19.6 82 -9.5 14.9
17:55 1024 30.24 853 25.19 -6.9 19.5 82 -9.5 14.9
18:00 1024 30.24 853 25.19 -7 19.4 83 -9.4 15.1
18:05 1024 30.24 853 25.19 -6.9 19.5 84 -9.2 15.4
18:10 1024 30.24 853 25.19 -7 19.4 84 -9.2 15.4
18:15 1024 30.24 853 25.19 -7.1 19.2 85 -9.3 15.3
18:20 1024 30.24 853 25.19 -7.1 19.2 85 -9.2 15.4
18:25 1024 30.24 853 25.19 -7.3 18.9 86 -9.2 15.4
18:30 1024 30.24 853 25.19 -7.3 18.8 88 -9.1 15.7
18:35 1024 30.24 853 25.19 -7.3 18.8 88 -9 15.8
18:40 1024 30.24 853 25.19 -7.2 19.1 86 -9.1 15.7
18:45 1024 30.24 853 25.19 -7.3 18.9 86 -9.2 15.5
18:50 1024 30.24 853 25.19 -7.4 18.8 86 -9.3 15.2
18:55 1024 30.24 853 25.19 -7.4 18.7 87 -9.2 15.4
19:00 1024 30.24 853 25.19 -7.3 18.8 86 -9.3 15.3
19:05 1024 30.24 854 25.22 -7.2 19 88 -8.9 15.9
19:10 1024 30.24 853 25.19 -7.2 19.1 86 -9.2 15.5
19:15 1024 30.24 853 25.19 -7.4 18.6 87 -9.3 15.3
19:20 1024 30.24 853 25.19 -7.5 18.6 87 -9.2 15.4
19:25 1024 30.24 853 25.19 -7.5 18.5 88 -9.1 15.6
19:30 1024 30.24 853 25.19 -7.6 18.4 88 -9.3 15.3
19:35 1024 30.24 853 25.19 -7.6 18.3 85 -9.7 14.6
19:40 1024 30.24 853 25.19 -7.7 18.2 86 -9.6 14.7
19:45 1024 30.24 853 25.19 -7.7 18.1 85 -9.8 14.3
19:50 1024 30.24 853 25.19 -7.9 17.7 85 -10 14
19:55 1024 30.24 853 25.19 -8 17.7 85 -10.1 13.8
20:00 1024 30.24 853 25.19 -8 17.7 85 -10.1 13.9
20:05 1024 30.24 853 25.19 -8 17.7 83 -10.3 13.5
20:10 1024 30.24 853 25.19 -8.1 17.5 84 -10.3 13.4
20:15 1024 30.24 853 25.19 -8.2 17.3 83 -10.6 12.9
20:20 1024 30.24 853 25.19 -8.2 17.3 82 -10.7 12.7
20:25 1024 30.24 854 25.22 -8.2 17.3 81 -10.8 12.5
20:30 1024 30.24 853 25.19 -8.2 17.2 81 -10.9 12.3
20:35 1024 30.24 854 25.22 -8.2 17.2 82 -10.8 12.5
20:40 1024 30.24 854 25.22 -8.3 17.2 80 -11.2 11.9
20:45 1024 30.24 854 25.22 -8.3 17.1 81 -11 12.1
20:50 1024 30.24 854 25.22 -8.3 17 81 -11.1 12.1
20:55 1024 30.24 854 25.22 -8.4 17 80 -11.1 11.9
21:00 1025 30.27 854 25.22 -8.5 16.8 81 -11.2 11.9
21:05 1025 30.27 854 25.22 -8.5 16.8 80 -11.3 11.7
21:10 1025 30.27 854 25.22 -8.5 16.7 80 -11.3 11.6
21:15 1025 30.27 854 25.22 -8.6 16.5 81 -11.4 11.5
21:20 1025 30.27 854 25.22 -8.7 16.3 81 -11.4 11.5
21:25 1025 30.27 854 25.22 -8.7 16.4 81 -11.5 11.4
21:30 1025 30.27 854 25.22 -8.7 16.4 81 -11.4 11.6
21:35 1025 30.27 854 25.22 -8.7 16.3 80 -11.5 11.3
21:40 1025 30.27 854 25.22 -8.8 16.2 81 -11.5 11.3
21:45 1025 30.27 854 25.22 -8.8 16.2 81 -11.5 11.2
21:50 1025 30.27 854 25.22 -8.8 16.1 82 -11.4 11.5
21:55 1025 30.27 854 25.22 -8.9 16.1 81 -11.5 11.3
22:00 1025 30.27 854 25.22 -8.9 15.9 81 -11.6 11.2
22:05 1025 30.27 854 25.22 -9 15.8 82 -11.5 11.3
22:10 1025 30.27 854 25.22 -9 15.8 82 -11.6 11.1
22:15 1025 30.27 854 25.22 -9.1 15.7 82 -11.6 11.1
22:20 1025 30.27 854 25.22 -9.1 15.6 83 -11.5 11.2
22:25 1025 30.27 854 25.22 -9.1 15.6 82 -11.6 11.1
22:30 1025 30.27 854 25.22 -9.1 15.5 82 -11.7 11
22:35 1025 30.27 855 25.25 -9.2 15.4 83 -11.6 11.1
22:40 1025 30.27 855 25.25 -9.3 15.3 83 -11.7 11
22:45 1025 30.27 855 25.25 -9.3 15.3 83 -11.7 10.9
22:50 1025 30.27 855 25.25 -9.4 15.2 81 -12 10.4
22:55 1025 30.27 855 25.25 -9.4 15.1 82 -11.9 10.5
23:00 1025 30.27 855 25.25 -9.5 15 83 -11.8 10.7
23:05 1026 30.3 855 25.25 -9.4 15 83 -11.9 10.6
23:10 1026 30.3 855 25.25 -9.5 15 82 -11.9 10.5
23:15 1026 30.3 855 25.25 -9.5 14.9 83 -11.9 10.5
23:20 1026 30.3 855 25.25 -9.6 14.7 83 -11.9 10.6
23:25 1026 30.3 855 25.25 -9.6 14.6 83 -12 10.5
23:30 1026 30.3 855 25.25 -9.7 14.5 83 -12 10.4
23:35 1026 30.3 855 25.25 -9.7 14.5 84 -11.9 10.5
23:40 1026 30.3 855 25.25 -9.7 14.6 82 -12.3 9.9
23:45 1026 30.3 855 25.25 -9.8 14.5 82 -12.2 10
23:50 1026 30.3 855 25.25 -9.8 14.4 84 -12 10.3
23:55 1026 30.3 855 25.25 -9.8 14.4 83 -12.1 10.2
24:00 1026 30.3 855 25.25 -9.8 14.3 84 -12.1 10.2